createdAt,value
2019-03-24T00:00:42.490Z,27.53
2019-03-24T00:03:12.202Z,28.90
2019-03-24T00:05:41.935Z,33.57
2019-03-24T00:08:11.626Z,29.87
2019-03-24T00:10:41.332Z,28.03
2019-03-24T00:13:11.174Z,31.77
2019-03-24T00:15:41.265Z,31.50
2019-03-24T00:18:10.986Z,36.93
2019-03-24T00:20:40.892Z,30.53
2019-03-24T00:23:10.601Z,33.90
2019-03-24T00:25:40.431Z,30.70
2019-03-24T00:28:10.178Z,34.20
2019-03-24T00:30:39.561Z,30.13
2019-03-24T00:33:08.969Z,31.00
2019-03-24T00:35:38.374Z,28.67
2019-03-24T00:38:07.817Z,31.07
2019-03-24T00:40:37.278Z,33.17
2019-03-24T00:43:07.261Z,31.60
2019-03-24T00:45:37.376Z,28.50
2019-03-24T00:48:07.294Z,39.30
2019-03-24T00:50:36.665Z,34.90
2019-03-24T00:53:06.511Z,31.77
2019-03-24T00:55:35.885Z,30.87
2019-03-24T00:58:05.777Z,34.67
2019-03-24T01:00:47.542Z,38.23
2019-03-24T01:03:17.458Z,45.83
2019-03-24T01:05:47.560Z,44.20
2019-03-24T01:08:17.394Z,47.57
2019-03-24T01:10:49.742Z,46.33
2019-03-24T01:13:19.206Z,44.40
2019-03-24T01:15:48.898Z,49.07
2019-03-24T01:18:18.772Z,50.00
2019-03-24T01:20:48.300Z,41.97
2019-03-24T01:23:17.997Z,43.40
2019-03-24T01:25:47.798Z,42.83
2019-03-24T01:28:17.606Z,46.67
2019-03-24T01:30:49.906Z,42.83
2019-03-24T01:33:19.290Z,44.47
2019-03-24T01:35:48.734Z,33.97
2019-03-24T01:38:18.166Z,39.03
2019-03-24T01:40:47.648Z,39.30
2019-03-24T01:43:17.338Z,41.23
2019-03-24T01:45:46.723Z,39.17
2019-03-24T01:48:16.415Z,43.23
2019-03-24T01:50:45.858Z,47.37
2019-03-24T01:53:15.313Z,43.00
2019-03-24T01:55:44.684Z,47.70
2019-03-24T01:58:14.552Z,41.33
2019-03-24T02:00:44.254Z,42.60
2019-03-24T02:03:13.715Z,38.07
2019-03-24T02:05:43.091Z,37.00
2019-03-24T02:08:12.467Z,42.27
2019-03-24T02:10:41.925Z,39.47
2019-03-24T02:13:11.392Z,40.70
2019-03-24T02:15:40.893Z,43.50
2019-03-24T02:18:10.687Z,50.20
2019-03-24T02:20:40.404Z,43.77
2019-03-24T02:23:09.874Z,46.90
2019-03-24T02:25:39.319Z,46.47
2019-03-24T02:28:08.779Z,42.03
2019-03-24T02:30:38.296Z,44.93
2019-03-24T02:33:07.686Z,45.00
2019-03-24T02:35:37.130Z,46.10
2019-03-24T02:38:06.847Z,40.10
2019-03-24T02:40:36.234Z,43.53
2019-03-24T02:43:05.767Z,43.77
2019-03-24T02:45:35.291Z,39.80
2019-03-24T02:48:04.687Z,39.93
2019-03-24T02:50:34.070Z,40.90
2019-03-24T02:53:03.454Z,46.67
2019-03-24T02:55:33.152Z,48.30
2019-03-24T02:58:02.622Z,48.10
2019-03-24T03:00:32.060Z,48.07
2019-03-24T03:03:01.522Z,46.60
2019-03-24T03:05:30.977Z,43.67
2019-03-24T03:08:00.522Z,49.40
2019-03-24T03:10:30.038Z,50.73
2019-03-24T03:12:59.451Z,50.57
2019-03-24T03:15:28.826Z,51.60
2019-03-24T03:17:58.224Z,49.07
2019-03-24T03:20:27.595Z,49.00
2019-03-24T03:22:57.338Z,52.20
2019-03-24T03:25:26.714Z,52.17
2019-03-24T03:27:56.091Z,51.13
2019-03-24T03:30:25.478Z,59.03
2019-03-24T03:32:55.135Z,54.93
2019-03-24T03:35:24.527Z,60.03
2019-03-24T03:37:54.151Z,61.37
2019-03-24T03:40:23.541Z,69.73
2019-03-24T03:42:53.263Z,64.47
2019-03-24T03:45:29.412Z,74.10
2019-03-24T03:47:58.908Z,67.80
2019-03-24T03:50:28.435Z,64.00
2019-03-24T03:52:57.879Z,66.43
2019-03-24T03:55:27.671Z,65.20
2019-03-24T03:57:57.113Z,55.70
2019-03-24T04:00:32.857Z,53.53
2019-03-24T04:03:02.361Z,53.83
2019-03-24T04:05:32.240Z,58.50
2019-03-24T04:08:01.886Z,51.53
2019-03-24T04:10:31.424Z,66.27
2019-03-24T04:13:01.014Z,60.03
2019-03-24T04:15:30.477Z,61.73
2019-03-24T04:17:59.858Z,68.57
2019-03-24T04:20:29.563Z,64.47
2019-03-24T04:22:59.006Z,72.37
2019-03-24T04:25:28.541Z,58.03
2019-03-24T04:27:57.915Z,62.60
2019-03-24T04:30:27.702Z,68.23
2019-03-24T04:32:57.073Z,73.37
2019-03-24T04:35:26.525Z,64.87
2019-03-24T04:37:55.974Z,63.27
2019-03-24T04:40:25.723Z,63.37
2019-03-24T04:42:55.170Z,64.20
2019-03-24T04:45:24.557Z,68.90
2019-03-24T04:47:54.261Z,61.60
2019-03-24T04:50:23.798Z,59.90
2019-03-24T04:52:53.441Z,64.17
2019-03-24T04:55:22.834Z,70.97
2019-03-24T04:57:52.285Z,76.80
2019-03-24T05:00:34.788Z,68.83
2019-03-24T05:03:04.222Z,67.20
2019-03-24T05:05:34.052Z,71.73
2019-03-24T05:08:04.167Z,70.90
2019-03-24T05:10:33.625Z,66.13
2019-03-24T05:13:03.314Z,72.77
2019-03-24T05:15:32.703Z,71.67
2019-03-24T05:18:02.089Z,78.93
2019-03-24T05:20:31.541Z,72.77
2019-03-24T05:23:00.914Z,75.03
2019-03-24T05:25:30.302Z,82.67
2019-03-24T05:27:59.682Z,73.17
2019-03-24T05:30:29.073Z,71.43
2019-03-24T05:32:58.844Z,78.63
2019-03-24T05:35:28.660Z,83.00
2019-03-24T05:37:58.104Z,80.97
2019-03-24T05:40:27.489Z,73.33
2019-03-24T05:42:56.869Z,74.63
2019-03-24T05:45:26.266Z,70.63
2019-03-24T05:47:55.709Z,78.73
2019-03-24T05:50:25.102Z,75.17
2019-03-24T05:52:54.477Z,82.10
2019-03-24T05:55:23.933Z,67.27
2019-03-24T05:57:53.337Z,68.60
2019-03-24T06:00:23.150Z,72.07
2019-03-24T06:02:52.523Z,80.70
2019-03-24T06:05:22.172Z,64.30
2019-03-24T06:07:51.629Z,70.27
2019-03-24T06:10:21.322Z,62.33
2019-03-24T06:12:50.773Z,68.83
2019-03-24T06:15:20.239Z,62.93
2019-03-24T06:17:49.948Z,67.30
2019-03-24T06:20:19.754Z,62.60
2019-03-24T06:22:49.472Z,63.53
2019-03-24T06:25:18.946Z,70.07
2019-03-24T06:27:48.578Z,70.83
2019-03-24T06:30:18.708Z,75.53
2019-03-24T06:32:48.405Z,72.00
2019-03-24T06:35:17.884Z,72.53
2019-03-24T06:37:47.627Z,60.40
2019-03-24T06:40:17.084Z,66.67
2019-03-24T06:42:46.479Z,60.23
2019-03-24T06:45:16.006Z,61.50
2019-03-24T06:47:45.402Z,63.50
2019-03-24T06:50:15.254Z,65.70
2019-03-24T06:52:44.788Z,61.80
2019-03-24T06:55:14.311Z,74.03
2019-03-24T06:57:43.713Z,64.07
2019-03-24T07:00:13.738Z,61.77
2019-03-24T07:02:43.209Z,63.90
2019-03-24T07:05:13.426Z,54.97
2019-03-24T07:07:43.126Z,60.03
2019-03-24T07:10:12.983Z,65.67
2019-03-24T07:12:42.397Z,62.03
2019-03-24T07:15:12.665Z,61.00
2019-03-24T07:17:42.477Z,67.10
2019-03-24T07:20:12.009Z,79.23
2019-03-24T07:22:41.639Z,84.53
2019-03-24T07:25:11.506Z,100.53
2019-03-24T07:27:41.219Z,101.33
2019-03-24T07:30:11.509Z,95.10
2019-03-24T07:32:40.984Z,91.03
2019-03-24T07:35:10.509Z,77.83
2019-03-24T07:37:40.374Z,91.93
2019-03-24T07:40:10.618Z,104.87
2019-03-24T07:42:40.074Z,104.57
2019-03-24T07:45:09.965Z,118.47
2019-03-24T07:47:39.431Z,119.77
2019-03-24T07:50:11.279Z,122.00
2019-03-24T07:52:40.791Z,129.70
2019-03-24T07:55:10.610Z,131.00
2019-03-24T07:57:40.958Z,122.40
2019-03-24T08:00:11.440Z,116.70
2019-03-24T08:02:50.963Z,116.33
2019-03-24T08:05:16.639Z,131.90
2019-03-24T08:07:46.415Z,116.67
2019-03-24T08:10:16.432Z,126.87
2019-03-24T08:12:46.002Z,121.40
2019-03-24T08:15:17.290Z,115.10
2019-03-24T08:17:47.510Z,113.87
2019-03-24T08:20:17.026Z,109.80
2019-03-24T08:22:47.447Z,104.87
2019-03-24T08:25:20.323Z,115.33
2019-03-24T08:27:49.747Z,107.87
2019-03-24T08:30:31.242Z,96.67
2019-03-24T08:33:01.238Z,97.43
2019-03-24T08:35:30.716Z,103.03
2019-03-24T08:38:00.583Z,83.60
2019-03-24T08:40:30.137Z,82.53
2019-03-24T08:42:59.549Z,88.47
2019-03-24T08:45:30.280Z,86.40
2019-03-24T08:48:00.516Z,80.67
2019-03-24T08:50:30.070Z,78.97
2019-03-24T08:52:59.833Z,91.80
2019-03-24T08:55:29.645Z,82.23
2019-03-24T08:57:59.117Z,89.73
2019-03-24T09:00:30.925Z,81.03
2019-03-24T09:03:00.089Z,91.47
2019-03-24T09:05:29.460Z,86.03
2019-03-24T09:07:58.958Z,89.30
2019-03-24T09:10:28.447Z,78.60
2019-03-24T09:12:57.858Z,86.10
2019-03-24T09:15:27.637Z,92.20
2019-03-24T09:17:57.718Z,83.37
2019-03-24T09:20:27.109Z,88.97
2019-03-24T09:22:56.509Z,78.60
2019-03-24T09:25:25.912Z,85.10
2019-03-24T09:27:55.754Z,91.33
2019-03-24T09:30:32.965Z,79.70
2019-03-24T09:33:02.492Z,88.47
2019-03-24T09:35:32.091Z,85.10
2019-03-24T09:38:02.038Z,88.40
2019-03-24T09:40:32.806Z,87.27
2019-03-24T09:43:03.126Z,81.67
2019-03-24T09:45:32.886Z,88.87
2019-03-24T09:48:02.986Z,94.67
2019-03-24T09:50:33.116Z,88.97
2019-03-24T09:53:02.645Z,93.50
2019-03-24T09:55:32.110Z,83.07
2019-03-24T09:58:01.829Z,92.43
2019-03-24T10:00:31.757Z,90.17
2019-03-24T10:03:01.314Z,87.93
2019-03-24T10:05:30.887Z,97.07
2019-03-24T10:08:00.771Z,100.17
2019-03-24T10:10:30.582Z,93.30
2019-03-24T10:13:00.061Z,91.30
2019-03-24T10:15:29.558Z,82.63
2019-03-24T10:17:59.336Z,86.83
2019-03-24T10:20:28.804Z,92.70
2019-03-24T10:22:58.524Z,93.80
2019-03-24T10:25:27.925Z,87.47
2019-03-24T10:27:57.542Z,89.50
2019-03-24T10:30:26.961Z,80.13
2019-03-24T10:32:56.741Z,88.90
2019-03-24T10:35:26.154Z,81.73
2019-03-24T10:37:56.369Z,86.97
2019-03-24T10:40:28.965Z,79.07
2019-03-24T10:42:57.339Z,82.60
2019-03-24T10:45:26.789Z,78.73
2019-03-24T10:47:56.360Z,87.10
2019-03-24T10:50:25.878Z,86.73
2019-03-24T10:52:55.354Z,82.07
2019-03-24T10:55:24.875Z,85.40
2019-03-24T10:57:54.491Z,79.90
2019-03-24T11:00:41.042Z,81.57
2019-03-24T11:03:10.595Z,91.90
2019-03-24T11:05:40.701Z,70.40
2019-03-24T11:08:10.856Z,71.00
2019-03-24T11:10:40.779Z,70.47
2019-03-24T11:13:10.294Z,82.70
2019-03-24T11:15:40.117Z,70.77
2019-03-24T11:18:09.658Z,74.63
2019-03-24T11:20:39.154Z,75.53
2019-03-24T11:23:08.627Z,75.13
2019-03-24T11:25:38.586Z,72.30
2019-03-24T11:28:08.502Z,72.43
2019-03-24T11:30:38.295Z,69.10
2019-03-24T11:33:08.159Z,68.37
2019-03-24T11:35:37.570Z,66.63
2019-03-24T11:38:07.304Z,70.77
2019-03-24T11:40:37.148Z,65.10
2019-03-24T11:43:06.664Z,67.20
2019-03-24T11:45:36.604Z,66.70
2019-03-24T11:48:06.137Z,64.27
2019-03-24T11:50:36.283Z,68.23
2019-03-24T11:53:06.189Z,66.90
2019-03-24T11:55:35.750Z,72.77
2019-03-24T11:58:06.328Z,62.00
2019-03-24T12:00:38.114Z,60.63
2019-03-24T12:03:08.137Z,65.10
2019-03-24T12:05:37.694Z,67.97
2019-03-24T12:08:07.316Z,63.57
2019-03-24T12:10:36.895Z,63.90
2019-03-24T12:13:06.387Z,63.43
2019-03-24T12:15:35.990Z,63.30
2019-03-24T12:18:05.703Z,61.30
2019-03-24T12:20:35.282Z,58.17
2019-03-24T12:23:05.194Z,55.90
2019-03-24T12:25:35.008Z,62.47
2019-03-24T12:28:04.546Z,64.33
2019-03-24T12:30:34.432Z,53.03
2019-03-24T12:33:05.274Z,58.70
2019-03-24T12:35:34.827Z,60.43
2019-03-24T12:38:04.406Z,60.67
2019-03-24T12:40:34.086Z,60.57
2019-03-24T12:43:03.958Z,58.30
2019-03-24T12:45:33.788Z,61.80
2019-03-24T12:48:03.353Z,56.13
2019-03-24T12:50:33.245Z,55.47
2019-03-24T12:53:02.800Z,54.73
2019-03-24T12:55:32.283Z,52.47
2019-03-24T12:58:01.781Z,56.23
2019-03-24T13:00:36.441Z,52.03
2019-03-24T13:03:07.037Z,51.07
2019-03-24T13:05:36.585Z,53.10
2019-03-24T13:08:16.782Z,56.07
2019-03-24T13:10:46.870Z,51.40
2019-03-24T13:13:16.710Z,53.33
2019-03-24T13:15:46.738Z,51.80
2019-03-24T13:18:16.557Z,50.03
2019-03-24T13:20:46.674Z,55.60
2019-03-24T13:23:16.470Z,50.77
2019-03-24T13:25:46.047Z,49.97
2019-03-24T13:28:16.206Z,57.33
2019-03-24T13:30:46.049Z,54.60
2019-03-24T13:33:15.823Z,52.57
2019-03-24T13:35:45.402Z,51.37
2019-03-24T13:38:15.243Z,51.87
2019-03-24T13:40:45.063Z,47.20
2019-03-24T13:43:14.770Z,52.97
2019-03-24T13:45:44.321Z,55.07
2019-03-24T13:48:13.897Z,54.03
2019-03-24T13:50:43.455Z,48.87
2019-03-24T13:53:12.878Z,46.13
2019-03-24T13:55:42.352Z,49.73
2019-03-24T13:58:12.270Z,54.70
2019-03-24T14:00:42.006Z,51.00
2019-03-24T14:03:11.433Z,49.27
2019-03-24T14:05:40.983Z,43.90
2019-03-24T14:08:10.811Z,48.63
2019-03-24T14:10:40.574Z,46.93
2019-03-24T14:13:10.065Z,45.70
2019-03-24T14:15:39.871Z,43.67
2019-03-24T14:18:09.381Z,41.13
2019-03-24T14:20:43.568Z,42.57
2019-03-24T14:23:09.930Z,35.73
2019-03-24T14:25:39.413Z,42.90
2019-03-24T14:28:08.834Z,38.83
2019-03-24T14:30:46.166Z,38.87
2019-03-24T14:33:16.446Z,39.83
2019-03-24T14:35:46.506Z,42.83
2019-03-24T14:38:16.043Z,34.80
2019-03-24T14:40:45.509Z,39.80
2019-03-24T14:43:15.190Z,41.73
2019-03-24T14:45:45.107Z,41.90
2019-03-24T14:48:15.020Z,37.60
2019-03-24T14:50:53.873Z,39.93
2019-03-24T14:53:16.058Z,37.13
2019-03-24T14:55:45.608Z,38.00
2019-03-24T14:58:15.214Z,42.47
2019-03-24T15:00:45.103Z,38.50
2019-03-24T15:03:14.670Z,37.57
2019-03-24T15:05:44.521Z,38.97
2019-03-24T15:08:14.178Z,41.53
2019-03-24T15:10:43.742Z,41.13
2019-03-24T15:13:13.375Z,47.90
2019-03-24T15:15:43.262Z,41.83
2019-03-24T15:18:13.075Z,41.30
2019-03-24T15:20:43.302Z,48.80
2019-03-24T15:23:13.006Z,51.17
2019-03-24T15:25:42.566Z,45.07
2019-03-24T15:28:12.038Z,47.40
2019-03-24T15:30:41.449Z,50.73
2019-03-24T15:33:10.935Z,46.20
2019-03-24T15:35:40.737Z,48.20
2019-03-24T15:38:10.921Z,54.33
2019-03-24T15:40:40.399Z,54.53
2019-03-24T15:43:09.886Z,50.27
2019-03-24T15:45:39.266Z,49.53
2019-03-24T15:48:08.821Z,53.80
2019-03-24T15:50:38.593Z,54.37
2019-03-24T15:53:08.195Z,50.83
2019-03-24T15:55:37.742Z,60.07
2019-03-24T15:58:07.522Z,55.23
2019-03-24T16:00:47.406Z,64.13
2019-03-24T16:03:17.590Z,61.10
2019-03-24T16:05:47.127Z,57.70
2019-03-24T16:08:16.698Z,67.60
2019-03-24T16:10:46.256Z,52.00
2019-03-24T16:13:15.801Z,58.97
2019-03-24T16:15:45.632Z,65.13
2019-03-24T16:18:15.114Z,55.00
2019-03-24T16:20:44.575Z,55.50
2019-03-24T16:23:14.772Z,58.17
2019-03-24T16:25:44.165Z,57.40
2019-03-24T16:28:13.633Z,61.50
2019-03-24T16:30:43.109Z,59.83
2019-03-24T16:33:12.509Z,59.50
2019-03-24T16:35:42.287Z,54.23
2019-03-24T16:38:11.845Z,59.33
2019-03-24T16:40:41.642Z,57.93
2019-03-24T16:43:11.256Z,58.17
2019-03-24T16:45:40.730Z,55.97
2019-03-24T16:48:10.177Z,59.60
2019-03-24T16:50:39.645Z,61.00
2019-03-24T16:53:09.449Z,49.13
2019-03-24T16:55:39.021Z,58.97
2019-03-24T16:58:08.485Z,57.17
2019-03-24T17:00:38.045Z,65.33
2019-03-24T17:03:07.567Z,59.00
2019-03-24T17:05:37.038Z,62.80
2019-03-24T17:08:06.591Z,64.07
2019-03-24T17:10:36.335Z,57.50
2019-03-24T17:13:06.094Z,56.00
2019-03-24T17:15:35.573Z,59.70
2019-03-24T17:18:05.663Z,51.70
2019-03-24T17:20:35.531Z,53.13
2019-03-24T17:23:05.210Z,56.17
2019-03-24T17:25:35.102Z,52.90
2019-03-24T17:28:04.610Z,65.90
2019-03-24T17:30:34.278Z,70.13
2019-03-24T17:33:03.942Z,57.77
2019-03-24T17:35:33.422Z,55.33
2019-03-24T17:38:02.882Z,55.20
2019-03-24T17:40:38.593Z,50.03
2019-03-24T17:43:04.154Z,54.60
2019-03-24T17:45:34.078Z,52.90
2019-03-24T17:48:03.886Z,56.67
2019-03-24T17:50:33.804Z,60.97
2019-03-24T17:53:03.271Z,53.60
2019-03-24T17:55:32.928Z,51.57
2019-03-24T17:58:02.335Z,52.63
2019-03-24T18:00:43.315Z,52.30
2019-03-24T18:03:12.848Z,48.60
2019-03-24T18:05:42.809Z,51.77
2019-03-24T18:08:12.627Z,56.17
2019-03-24T18:10:42.107Z,50.30
2019-03-24T18:13:11.481Z,51.70
2019-03-24T18:15:41.041Z,50.27
2019-03-24T18:18:10.539Z,49.20
2019-03-24T18:20:40.091Z,48.20
2019-03-24T18:23:09.600Z,51.57
2019-03-24T18:25:39.366Z,52.97
2019-03-24T18:28:08.829Z,48.77
2019-03-24T18:30:38.587Z,49.80
2019-03-24T18:33:08.133Z,57.97
2019-03-24T18:35:37.627Z,47.30
2019-03-24T18:38:07.221Z,50.47
2019-03-24T18:40:36.772Z,53.90
2019-03-24T18:43:06.620Z,53.50
2019-03-24T18:45:36.090Z,46.90
2019-03-24T18:48:06.422Z,46.43
2019-03-24T18:50:35.928Z,51.83
2019-03-24T18:53:05.598Z,44.23
2019-03-24T18:55:34.997Z,52.67
2019-03-24T18:58:05.093Z,48.33
2019-03-24T19:00:35.007Z,46.20
2019-03-24T19:03:04.545Z,52.00
2019-03-24T19:05:35.252Z,48.83
2019-03-24T19:08:05.462Z,54.40
2019-03-24T19:10:34.879Z,49.27
2019-03-24T19:13:04.602Z,48.67
2019-03-24T19:15:34.108Z,47.83
2019-03-24T19:18:03.604Z,52.20
2019-03-24T19:20:33.069Z,49.10
2019-03-24T19:23:02.546Z,49.63
2019-03-24T19:25:32.145Z,51.40
2019-03-24T19:28:01.920Z,52.07
2019-03-24T19:30:36.887Z,52.80
2019-03-24T19:33:06.750Z,54.77
2019-03-24T19:35:36.371Z,50.27
2019-03-24T19:38:06.597Z,53.13
2019-03-24T19:40:36.719Z,59.17
2019-03-24T19:43:06.370Z,50.07
2019-03-24T19:45:36.250Z,51.77
2019-03-24T19:48:05.950Z,49.37
2019-03-24T19:50:35.763Z,57.60
2019-03-24T19:53:05.326Z,55.37
2019-03-24T19:55:35.183Z,57.67
2019-03-24T19:58:04.812Z,56.80
2019-03-24T20:00:34.511Z,50.97
2019-03-24T20:03:04.198Z,59.00
2019-03-24T20:05:34.074Z,46.57
2019-03-24T20:08:03.646Z,49.73
2019-03-24T20:10:33.680Z,50.87
2019-03-24T20:13:03.161Z,51.57
2019-03-24T20:15:33.113Z,48.90
2019-03-24T20:18:02.693Z,49.97
2019-03-24T20:20:32.250Z,47.60
2019-03-24T20:23:01.822Z,56.17
2019-03-24T20:25:31.380Z,47.20
2019-03-24T20:28:01.007Z,56.10
2019-03-24T20:30:30.459Z,50.17
2019-03-24T20:33:00.254Z,48.60
2019-03-24T20:35:30.350Z,46.50
2019-03-24T20:37:59.771Z,48.50
2019-03-24T20:40:29.230Z,46.60
2019-03-24T20:42:58.969Z,49.00
2019-03-24T20:45:28.437Z,54.30
2019-03-24T20:47:58.549Z,46.87
2019-03-24T20:50:28.115Z,48.40
2019-03-24T20:53:05.497Z,51.67
2019-03-24T20:55:29.263Z,53.13
2019-03-24T20:57:59.282Z,47.37
2019-03-24T21:00:37.125Z,44.73
2019-03-24T21:03:08.210Z,45.93
2019-03-24T21:05:38.733Z,41.80
2019-03-24T21:08:09.115Z,39.20
2019-03-24T21:10:38.794Z,45.60
2019-03-24T21:13:08.529Z,47.03
2019-03-24T21:15:39.150Z,48.53
2019-03-24T21:18:09.402Z,49.40
2019-03-24T21:20:39.409Z,46.30
2019-03-24T21:23:10.046Z,46.27
2019-03-24T21:25:43.612Z,51.90
2019-03-24T21:28:13.762Z,45.93
2019-03-24T21:30:43.313Z,50.87
2019-03-24T21:33:13.042Z,46.37
2019-03-24T21:35:43.559Z,48.10
2019-03-24T21:38:14.096Z,50.23
2019-03-24T21:40:43.618Z,47.87
2019-03-24T21:43:13.227Z,49.47
2019-03-24T21:45:43.143Z,52.90
2019-03-24T21:48:12.583Z,50.80
2019-03-24T21:50:42.994Z,49.37
2019-03-24T21:53:13.140Z,48.47
2019-03-24T21:55:42.986Z,47.80
2019-03-24T21:58:13.035Z,52.23
2019-03-24T22:00:44.294Z,47.93
2019-03-24T22:03:14.001Z,56.10
2019-03-24T22:05:46.714Z,50.43
2019-03-24T22:08:16.555Z,52.93
2019-03-24T22:10:46.365Z,54.80
2019-03-24T22:13:16.363Z,51.07
2019-03-24T22:15:46.228Z,49.80
2019-03-24T22:18:16.010Z,51.57
2019-03-24T22:20:49.139Z,56.43
2019-03-24T22:23:17.167Z,53.90
2019-03-24T22:25:46.842Z,56.10
2019-03-24T22:28:17.058Z,56.83
2019-03-24T22:30:46.545Z,61.20
2019-03-24T22:33:16.353Z,56.30
2019-03-24T22:35:47.205Z,55.10
2019-03-24T22:38:17.270Z,59.13
2019-03-24T22:40:48.735Z,53.53
2019-03-24T22:43:18.293Z,50.43
2019-03-24T22:45:48.838Z,58.00
2019-03-24T22:48:19.326Z,59.20
2019-03-24T22:50:52.173Z,52.53
2019-03-24T22:53:22.498Z,50.90
2019-03-24T22:55:51.874Z,58.97
2019-03-24T22:58:22.155Z,58.93
2019-03-24T23:00:55.155Z,56.17
2019-03-24T23:03:25.582Z,52.60
2019-03-24T23:05:55.921Z,61.53
2019-03-24T23:08:26.143Z,53.17
2019-03-24T23:10:55.900Z,53.27
2019-03-24T23:13:25.448Z,51.93
2019-03-24T23:15:55.702Z,56.93
2019-03-24T23:18:25.667Z,58.07
2019-03-24T23:20:55.089Z,56.80
2019-03-24T23:23:24.639Z,59.57
2019-03-24T23:25:54.103Z,54.23
2019-03-24T23:28:23.658Z,55.30
2019-03-24T23:30:53.481Z,61.40
2019-03-24T23:33:23.026Z,57.33
2019-03-24T23:35:52.595Z,55.07
2019-03-24T23:38:21.982Z,56.90
2019-03-24T23:40:51.459Z,60.70
2019-03-24T23:43:21.318Z,57.97
2019-03-24T23:45:50.789Z,60.97
2019-03-24T23:48:20.536Z,63.97
2019-03-24T23:50:50.446Z,58.70
2019-03-24T23:53:19.857Z,59.13
2019-03-24T23:55:49.292Z,56.73
2019-03-24T23:58:18.962Z,59.63
